createdAt,value
2019-02-22T00:01:37.658Z,7.58
2019-02-22T00:04:06.141Z,7.63
2019-02-22T00:06:34.701Z,7.63
2019-02-22T00:09:04.881Z,7.57
2019-02-22T00:11:33.373Z,7.62
2019-02-22T00:14:01.851Z,7.63
2019-02-22T00:16:32.360Z,7.65
2019-02-22T00:19:00.605Z,7.68
2019-02-22T00:21:29.155Z,7.62
2019-02-22T00:23:57.740Z,7.66
2019-02-22T00:26:26.449Z,7.68
2019-02-22T00:28:54.982Z,7.67
2019-02-22T00:31:23.411Z,7.69
2019-02-22T00:33:51.922Z,7.73
2019-02-22T00:36:20.400Z,7.76
2019-02-22T00:38:48.981Z,7.76
2019-02-22T00:41:17.541Z,7.75
2019-02-22T00:43:46.025Z,7.73
2019-02-22T00:46:14.563Z,7.70
2019-02-22T00:48:43.098Z,7.69
2019-02-22T00:51:11.648Z,7.74
2019-02-22T00:53:40.121Z,7.75
2019-02-22T00:56:08.593Z,7.71
2019-02-22T00:58:37.095Z,7.73
2019-02-22T01:01:05.569Z,7.76
2019-02-22T01:03:34.069Z,7.71
2019-02-22T01:06:02.545Z,7.73
2019-02-22T01:08:31.046Z,7.68
2019-02-22T01:10:59.584Z,7.68
2019-02-22T01:13:28.096Z,7.72
2019-02-22T01:15:56.577Z,7.72
2019-02-22T01:18:25.040Z,7.74
2019-02-22T01:20:54.643Z,7.75
2019-02-22T01:23:23.400Z,7.67
2019-02-22T01:25:51.888Z,7.74
2019-02-22T01:28:20.347Z,7.66
2019-02-22T01:30:48.833Z,7.61
2019-02-22T01:33:17.290Z,7.63
2019-02-22T01:35:45.782Z,7.58
2019-02-22T01:38:14.265Z,7.63
2019-02-22T01:40:44.136Z,7.67
2019-02-22T01:43:12.796Z,7.69
2019-02-22T01:45:41.292Z,7.66
2019-02-22T01:48:09.778Z,7.68
2019-02-22T01:50:38.269Z,7.69
2019-02-22T01:53:06.844Z,7.64
2019-02-22T01:55:35.305Z,7.66
2019-02-22T01:58:03.774Z,7.60
2019-02-22T02:00:32.410Z,7.66
2019-02-22T02:03:03.797Z,7.68
2019-02-22T02:05:32.308Z,7.68
2019-02-22T02:08:00.784Z,7.66
2019-02-22T02:10:29.280Z,7.68
2019-02-22T02:12:57.747Z,7.69
2019-02-22T02:15:26.232Z,7.63
2019-02-22T02:17:54.688Z,7.65
2019-02-22T02:20:23.379Z,7.64
2019-02-22T02:22:51.824Z,7.63
2019-02-22T02:25:20.529Z,7.58
2019-02-22T02:27:48.999Z,7.56
2019-02-22T02:30:17.588Z,7.55
2019-02-22T02:32:46.081Z,7.60
2019-02-22T02:35:14.620Z,7.59
2019-02-22T02:37:43.208Z,7.58
2019-02-22T02:40:11.843Z,7.54
2019-02-22T02:42:40.339Z,7.54
2019-02-22T02:45:09.097Z,7.53
2019-02-22T02:47:37.589Z,7.43
2019-02-22T02:50:07.538Z,7.41
2019-02-22T02:52:36.032Z,7.45
2019-02-22T02:55:04.666Z,7.47
2019-02-22T02:57:33.184Z,7.51
2019-02-22T03:00:01.761Z,7.47
2019-02-22T03:02:31.305Z,7.54
2019-02-22T03:04:59.769Z,7.53
2019-02-22T03:07:44.989Z,7.53
2019-02-22T03:10:13.685Z,7.56
2019-02-22T03:12:42.236Z,7.55
2019-02-22T03:15:13.299Z,7.55
2019-02-22T03:17:41.864Z,7.54
2019-02-22T03:20:10.504Z,7.53
2019-02-22T03:22:38.980Z,7.56
2019-02-22T03:25:09.352Z,7.42
2019-02-22T03:27:37.921Z,7.49
2019-02-22T03:30:11.154Z,7.55
2019-02-22T03:32:39.670Z,7.55
2019-02-22T03:35:08.384Z,7.56
2019-02-22T03:37:36.927Z,7.57
2019-02-22T03:40:07.292Z,7.54
2019-02-22T03:42:35.747Z,7.48
2019-02-22T03:45:06.093Z,7.44
2019-02-22T03:47:35.460Z,7.46
2019-02-22T03:50:06.315Z,7.60
2019-02-22T03:52:39.209Z,7.71
2019-02-22T03:55:09.177Z,7.71
2019-02-22T03:57:37.720Z,7.33
2019-02-22T04:00:09.223Z,7.21
2019-02-22T04:02:37.695Z,6.74
2019-02-22T04:05:09.577Z,6.94
2019-02-22T04:07:38.044Z,6.92
2019-02-22T04:10:08.060Z,6.87
2019-02-22T04:12:36.593Z,6.88
2019-02-22T04:15:08.349Z,6.91
2019-02-22T04:17:37.053Z,6.82
2019-02-22T04:20:07.777Z,6.82
2019-02-22T04:22:36.297Z,6.80
2019-02-22T04:25:06.236Z,6.79
2019-02-22T04:27:34.691Z,6.76
2019-02-22T04:30:03.329Z,6.74
2019-02-22T04:32:31.825Z,6.79
2019-02-22T04:35:00.336Z,6.82
2019-02-22T04:37:28.777Z,6.81
2019-02-22T04:39:57.256Z,6.79
2019-02-22T04:42:25.739Z,6.78
2019-02-22T04:44:54.917Z,6.75
2019-02-22T04:47:23.397Z,6.73
2019-02-22T04:49:51.857Z,6.72
2019-02-22T04:52:20.347Z,6.75
2019-02-22T04:54:48.800Z,6.70
2019-02-22T04:57:17.277Z,6.64
2019-02-22T04:59:45.734Z,6.58
2019-02-22T05:02:14.276Z,6.60
2019-02-22T05:04:42.731Z,6.45
2019-02-22T05:07:11.230Z,6.48
2019-02-22T05:09:39.662Z,6.47
2019-02-22T05:12:11.171Z,6.52
2019-02-22T05:14:38.321Z,6.50
2019-02-22T05:17:06.805Z,6.48
2019-02-22T05:19:35.281Z,6.52
2019-02-22T05:22:03.777Z,6.48
2019-02-22T05:24:32.312Z,6.54
2019-02-22T05:27:00.880Z,6.50
2019-02-22T05:29:29.491Z,6.49
2019-02-22T05:31:57.986Z,6.25
2019-02-22T05:34:29.441Z,6.32
2019-02-22T05:36:57.908Z,6.38
2019-02-22T05:39:26.472Z,6.24
2019-02-22T05:41:54.936Z,6.24
2019-02-22T05:44:23.490Z,6.30
2019-02-22T05:46:59.946Z,6.28
2019-02-22T05:49:22.627Z,6.19
2019-02-22T05:51:51.093Z,6.24
2019-02-22T05:54:19.599Z,6.27
2019-02-22T05:56:48.063Z,6.19
2019-02-22T05:59:16.619Z,6.28
2019-02-22T06:01:45.164Z,6.25
2019-02-22T06:04:13.647Z,6.20
2019-02-22T06:06:42.114Z,6.15
2019-02-22T06:09:10.699Z,6.04
2019-02-22T06:11:39.148Z,5.90
2019-02-22T06:14:07.627Z,5.99
2019-02-22T06:16:37.757Z,6.03
2019-02-22T06:19:06.227Z,5.93
2019-02-22T06:21:34.732Z,5.94
2019-02-22T06:24:03.340Z,5.94
2019-02-22T06:26:31.940Z,5.94
2019-02-22T06:29:03.236Z,5.89
2019-02-22T06:31:31.742Z,5.98
2019-02-22T06:34:02.169Z,6.00
2019-02-22T06:36:30.655Z,5.73
2019-02-22T06:38:59.201Z,5.69
2019-02-22T06:41:30.678Z,5.76
2019-02-22T06:43:59.148Z,5.69
2019-02-22T06:46:27.630Z,5.73
2019-02-22T06:48:56.099Z,5.67
2019-02-22T06:51:24.602Z,5.79
2019-02-22T06:53:53.065Z,5.61
2019-02-22T06:56:24.186Z,5.64
2019-02-22T06:58:51.743Z,5.49
2019-02-22T07:01:20.220Z,5.53
2019-02-22T07:03:48.705Z,5.50
2019-02-22T07:06:17.267Z,5.47
2019-02-22T07:08:45.775Z,5.54
2019-02-22T07:11:15.881Z,5.50
2019-02-22T07:13:44.366Z,5.50
2019-02-22T07:16:12.901Z,5.58
2019-02-22T07:18:41.541Z,5.53
2019-02-22T07:21:12.758Z,5.54
2019-02-22T07:23:41.311Z,5.34
2019-02-22T07:26:09.882Z,5.34
2019-02-22T07:28:38.383Z,5.30
2019-02-22T07:31:06.866Z,5.28
2019-02-22T07:33:35.346Z,5.25
2019-02-22T07:36:03.831Z,5.20
2019-02-22T07:38:32.307Z,5.11
2019-02-22T07:41:00.861Z,5.05
2019-02-22T07:43:29.341Z,5.06
2019-02-22T07:45:57.816Z,5.15
2019-02-22T07:48:26.280Z,4.91
2019-02-22T07:50:58.075Z,4.81
2019-02-22T07:53:26.509Z,4.97
2019-02-22T07:55:54.988Z,4.85
2019-02-22T07:58:23.450Z,4.84
2019-02-22T08:00:51.997Z,4.84
2019-02-22T08:03:20.537Z,4.87
2019-02-22T08:05:49.140Z,4.94
2019-02-22T08:08:17.616Z,4.93
2019-02-22T08:10:46.079Z,4.89
2019-02-22T08:13:19.848Z,4.96
2019-02-22T08:15:44.752Z,4.99
2019-02-22T08:18:13.217Z,4.78
2019-02-22T08:20:41.713Z,4.61
2019-02-22T08:23:10.180Z,4.83
2019-02-22T08:25:38.745Z,4.56
2019-02-22T08:28:07.211Z,4.37
2019-02-22T08:30:35.697Z,4.40
2019-02-22T08:33:04.233Z,4.28
2019-02-22T08:35:32.930Z,4.21
2019-02-22T08:38:02.945Z,4.30
2019-02-22T08:40:31.424Z,4.23
2019-02-22T08:42:59.876Z,4.16
2019-02-22T08:45:28.410Z,4.29
2019-02-22T08:47:56.940Z,4.16
2019-02-22T08:50:25.477Z,4.04
2019-02-22T08:52:54.002Z,4.07
2019-02-22T08:55:22.635Z,4.09
2019-02-22T08:57:51.130Z,4.02
2019-02-22T09:00:19.852Z,4.07
2019-02-22T09:02:48.308Z,4.08
2019-02-22T09:05:17.000Z,4.12
2019-02-22T09:07:45.451Z,4.21
2019-02-22T09:10:14.297Z,4.31
2019-02-22T09:12:42.758Z,4.15
2019-02-22T09:15:11.644Z,4.47
2019-02-22T09:17:40.114Z,4.20
2019-02-22T09:20:11.380Z,4.30
2019-02-22T09:22:39.911Z,4.40
2019-02-22T09:25:08.750Z,4.11
2019-02-22T09:27:37.293Z,4.07
2019-02-22T09:30:09.227Z,4.10
2019-02-22T09:32:37.713Z,4.28
2019-02-22T09:35:08.854Z,4.10
2019-02-22T09:37:37.479Z,4.12
2019-02-22T09:40:09.004Z,4.35
2019-02-22T09:42:39.044Z,4.32
2019-02-22T09:45:10.555Z,4.15
2019-02-22T09:47:39.094Z,4.26
2019-02-22T09:50:10.525Z,4.32
2019-02-22T09:52:39.000Z,4.16
2019-02-22T09:55:09.991Z,4.20
2019-02-22T09:57:38.837Z,4.02
2019-02-22T10:00:10.694Z,4.42
2019-02-22T10:02:39.211Z,4.45
2019-02-22T10:05:09.815Z,4.35
2019-02-22T10:07:38.292Z,4.21
2019-02-22T10:10:09.530Z,4.34
2019-02-22T10:12:37.981Z,4.44
2019-02-22T10:15:08.388Z,4.58
2019-02-22T10:17:36.857Z,4.91
2019-02-22T10:20:08.225Z,5.41
2019-02-22T10:22:36.715Z,5.16
2019-02-22T10:25:06.673Z,5.18
2019-02-22T10:27:38.308Z,5.71
2019-02-22T10:30:10.118Z,5.46
2019-02-22T10:32:38.596Z,5.68
2019-02-22T10:35:08.126Z,5.56
2019-02-22T10:37:36.581Z,5.63
2019-02-22T10:40:08.088Z,5.66
2019-02-22T10:42:36.543Z,5.72
2019-02-22T10:45:07.928Z,5.69
2019-02-22T10:47:36.368Z,5.74
2019-02-22T10:50:05.827Z,6.44
2019-02-22T10:52:34.272Z,5.97
2019-02-22T10:55:02.957Z,6.30
2019-02-22T10:57:31.393Z,5.86
2019-02-22T10:59:59.883Z,6.19
2019-02-22T11:02:28.355Z,6.40
2019-02-22T11:04:56.847Z,6.56
2019-02-22T11:07:25.347Z,6.80
2019-02-22T11:09:53.816Z,6.55
2019-02-22T11:12:24.361Z,6.10
2019-02-22T11:14:52.521Z,6.18
2019-02-22T11:17:21.069Z,6.38
2019-02-22T11:19:49.526Z,6.13
2019-02-22T11:22:18.031Z,6.08
2019-02-22T11:24:49.280Z,6.33
2019-02-22T11:27:17.741Z,6.41
2019-02-22T11:29:48.800Z,6.70
2019-02-22T11:32:17.960Z,6.51
2019-02-22T11:34:48.472Z,6.38
2019-02-22T11:37:16.938Z,6.43
2019-02-22T11:39:48.527Z,6.58
2019-02-22T11:42:17.009Z,6.74
2019-02-22T11:44:45.477Z,6.80
2019-02-22T11:47:13.955Z,6.83
2019-02-22T11:49:42.505Z,7.47
2019-02-22T11:52:10.971Z,7.48
2019-02-22T11:54:39.428Z,7.21
2019-02-22T11:57:08.143Z,7.38
2019-02-22T11:59:36.607Z,6.95
2019-02-22T12:02:05.298Z,6.82
2019-02-22T12:04:33.822Z,6.90
2019-02-22T12:07:02.465Z,6.83
2019-02-22T12:09:38.418Z,6.85
2019-02-22T12:12:07.014Z,6.98
2019-02-22T12:14:36.006Z,7.04
2019-02-22T12:17:04.560Z,7.50
2019-02-22T12:19:33.015Z,6.90
2019-02-22T12:22:01.484Z,7.11
2019-02-22T12:24:30.025Z,7.52
2019-02-22T12:26:58.486Z,7.58
2019-02-22T12:29:26.969Z,7.15
2019-02-22T12:31:55.455Z,7.20
2019-02-22T12:34:25.420Z,7.28
2019-02-22T12:36:53.906Z,7.60
2019-02-22T12:39:24.558Z,7.69
2019-02-22T12:41:53.745Z,7.61
2019-02-22T12:44:22.263Z,7.08
2019-02-22T12:46:50.729Z,7.26
2019-02-22T12:49:19.170Z,7.48
2019-02-22T12:51:47.750Z,7.61
2019-02-22T12:54:16.215Z,7.29
2019-02-22T12:56:57.080Z,7.14
2019-02-22T12:59:14.971Z,7.41
2019-02-22T13:01:43.552Z,7.13
2019-02-22T13:04:12.100Z,7.17
2019-02-22T13:06:40.595Z,7.34
2019-02-22T13:09:09.491Z,7.98
2019-02-22T13:11:37.957Z,8.40
2019-02-22T13:14:06.498Z,8.14
2019-02-22T13:16:35.020Z,8.25
2019-02-22T13:19:03.480Z,8.40
2019-02-22T13:21:31.941Z,8.56
2019-02-22T13:24:00.390Z,9.05
2019-02-22T13:26:28.864Z,9.23
2019-02-22T13:28:57.354Z,9.30
2019-02-22T13:31:30.232Z,10.38
2019-02-22T13:33:56.079Z,10.40
2019-02-22T13:36:24.621Z,9.69
2019-02-22T13:38:53.130Z,9.89
2019-02-22T13:41:21.592Z,9.80
2019-02-22T13:43:50.121Z,9.72
2019-02-22T13:46:18.599Z,9.97
2019-02-22T13:48:47.136Z,9.14
2019-02-22T13:51:15.593Z,9.76
2019-02-22T13:53:45.681Z,9.81
2019-02-22T13:56:14.165Z,9.98
2019-02-22T13:58:42.607Z,10.03
2019-02-22T14:01:11.095Z,9.68
2019-02-22T14:03:39.551Z,9.83
2019-02-22T14:06:08.051Z,9.16
2019-02-22T14:08:36.532Z,9.03
2019-02-22T14:11:05.012Z,8.88
2019-02-22T14:13:33.539Z,8.39
2019-02-22T14:16:02.004Z,8.32
2019-02-22T14:18:30.480Z,7.86
2019-02-22T14:20:58.942Z,7.98
2019-02-22T14:23:27.421Z,8.13
2019-02-22T14:25:55.925Z,8.23
2019-02-22T14:28:24.405Z,8.31
2019-02-22T14:30:52.855Z,7.85
2019-02-22T14:33:21.329Z,7.84
2019-02-22T14:35:49.780Z,7.45
2019-02-22T14:38:18.272Z,7.69
2019-02-22T14:40:46.728Z,7.60
2019-02-22T14:43:16.897Z,7.50
2019-02-22T14:45:49.266Z,7.44
2019-02-22T14:48:15.648Z,7.40
2019-02-22T14:50:44.208Z,6.97
2019-02-22T14:53:19.648Z,7.41
2019-02-22T14:55:43.052Z,7.37
2019-02-22T14:58:11.536Z,7.38
2019-02-22T15:00:40.004Z,7.29
2019-02-22T15:03:08.474Z,7.17
2019-02-22T15:05:36.939Z,7.03
2019-02-22T15:08:05.494Z,7.13
2019-02-22T15:10:34.012Z,6.72
2019-02-22T15:13:02.502Z,6.80
2019-02-22T15:18:26.334Z,6.82
2019-02-22T15:20:55.164Z,6.90
2019-02-22T15:23:23.658Z,6.60
2019-02-22T15:25:52.161Z,6.89
2019-02-22T15:28:20.632Z,6.92
2019-02-22T15:30:49.088Z,6.68
2019-02-22T15:33:18.401Z,6.63
2019-02-22T15:35:47.061Z,6.52
2019-02-22T15:38:15.564Z,6.48
2019-02-22T15:40:44.111Z,6.46
2019-02-22T15:43:12.602Z,6.37
2019-02-22T15:45:41.099Z,6.39
2019-02-22T15:48:09.609Z,6.36
2019-02-22T15:50:39.853Z,6.35
2019-02-22T15:53:08.330Z,6.36
2019-02-22T15:55:36.796Z,6.21
2019-02-22T15:58:05.283Z,6.19
2019-02-22T16:00:34.915Z,6.18
2019-02-22T16:03:05.072Z,6.28
2019-02-22T16:05:35.258Z,6.09
2019-02-22T16:08:03.806Z,5.90
2019-02-22T16:10:32.358Z,5.93
2019-02-22T16:13:00.840Z,5.86
2019-02-22T16:15:29.313Z,5.82
2019-02-22T16:18:02.513Z,5.67
2019-02-22T16:20:30.993Z,5.76
2019-02-22T16:23:04.486Z,5.62
2019-02-22T16:25:32.987Z,5.65
2019-02-22T16:28:01.557Z,5.47
2019-02-22T16:30:30.898Z,5.48
2019-02-22T16:32:59.362Z,5.51
2019-02-22T16:35:27.934Z,5.55
2019-02-22T16:37:56.426Z,5.45
2019-02-22T16:40:25.001Z,5.44
2019-02-22T16:42:54.999Z,5.42
2019-02-22T16:45:23.655Z,5.42
2019-02-22T16:47:52.141Z,5.40
2019-02-22T16:50:20.827Z,5.43
2019-02-22T16:52:49.297Z,5.39
2019-02-22T16:55:18.000Z,5.30
2019-02-22T16:57:47.977Z,5.17
2019-02-22T17:00:17.417Z,5.08
2019-02-22T17:02:45.875Z,4.97
2019-02-22T17:05:16.997Z,4.94
2019-02-22T17:07:45.540Z,4.89
2019-02-22T17:10:16.150Z,4.90
2019-02-22T17:12:46.205Z,4.87
2019-02-22T17:15:15.308Z,4.67
2019-02-22T17:17:43.837Z,4.63
2019-02-22T17:20:14.210Z,4.39
2019-02-22T17:22:42.698Z,4.32
2019-02-22T17:25:14.028Z,4.24
2019-02-22T17:27:42.500Z,4.30
2019-02-22T17:30:20.001Z,4.28
2019-02-22T17:32:48.529Z,4.35
2019-02-22T17:35:17.246Z,4.38
2019-02-22T17:37:50.695Z,4.34
2019-02-22T17:40:30.080Z,4.35
2019-02-22T17:42:58.551Z,4.38
2019-02-22T17:45:27.015Z,4.28
2019-02-22T17:48:22.821Z,4.31
2019-02-22T17:50:51.302Z,4.34
2019-02-22T17:53:21.589Z,4.32
2019-02-22T17:55:50.686Z,4.19
2019-02-22T17:58:24.466Z,4.21
2019-02-22T18:00:49.449Z,4.24
2019-02-22T18:03:24.413Z,4.25
2019-02-22T18:05:52.912Z,4.19
2019-02-22T18:08:21.382Z,4.17
2019-02-22T18:10:49.938Z,4.15
2019-02-22T18:13:18.401Z,4.11
2019-02-22T18:15:58.022Z,4.05
2019-02-22T18:18:25.735Z,4.00
2019-02-22T18:20:54.287Z,4.00
2019-02-22T18:23:22.800Z,4.01
2019-02-22T18:25:51.349Z,3.97
2019-02-22T18:28:22.519Z,3.89
2019-02-22T18:30:51.033Z,3.83
2019-02-22T18:33:21.082Z,3.80
2019-02-22T18:35:51.035Z,3.79
2019-02-22T18:38:19.554Z,3.77
2019-02-22T18:40:48.648Z,3.75
2019-02-22T18:43:18.463Z,3.41
2019-02-22T18:45:47.152Z,3.65
2019-02-22T18:51:47.702Z,3.57
2019-02-22T18:54:16.199Z,3.45
2019-02-22T18:56:44.665Z,3.42
2019-02-22T18:59:14.926Z,3.36
2019-02-22T19:01:45.885Z,3.36
2019-02-22T19:04:14.480Z,2.37
2019-02-22T19:06:42.953Z,3.06
2019-02-22T19:09:11.494Z,3.08
2019-02-22T19:11:39.957Z,2.79
2019-02-22T19:14:08.439Z,2.76
2019-02-22T19:16:36.921Z,2.65
2019-02-22T19:19:05.400Z,2.70
2019-02-22T19:21:33.885Z,2.71
2019-02-22T19:24:02.581Z,2.76
2019-02-22T19:26:31.127Z,2.78
2019-02-22T19:28:59.582Z,2.62
2019-02-22T19:31:28.073Z,2.68
2019-02-22T19:33:56.602Z,2.58
2019-02-22T19:36:25.101Z,2.64
2019-02-22T19:38:53.588Z,2.69
2019-02-22T19:41:22.054Z,2.72
2019-02-22T19:43:50.559Z,2.73
2019-02-22T19:46:19.054Z,2.62
2019-02-22T19:48:47.507Z,2.64
2019-02-22T19:51:18.834Z,2.55
2019-02-22T19:53:47.326Z,2.57
2019-02-22T19:56:15.811Z,2.48
2019-02-22T19:58:45.819Z,2.55
2019-02-22T20:01:14.376Z,2.52
2019-02-22T20:03:43.478Z,2.59
2019-02-22T20:06:12.184Z,2.56
2019-02-22T20:08:40.906Z,2.57
2019-02-22T20:11:09.719Z,2.59
2019-02-22T20:13:38.358Z,2.63
2019-02-22T20:16:06.944Z,2.61
2019-02-22T20:18:35.593Z,2.71
2019-02-22T20:21:07.455Z,2.73
2019-02-22T20:23:36.191Z,2.67
2019-02-22T20:26:04.894Z,2.63
2019-02-22T20:28:35.201Z,2.50
2019-02-22T20:31:04.181Z,2.45
2019-02-22T20:33:32.671Z,2.46
2019-02-22T20:36:02.674Z,2.40
2019-02-22T20:38:31.708Z,2.35
2019-02-22T20:41:00.396Z,2.34
2019-02-22T20:43:29.236Z,2.39
2019-02-22T20:45:57.995Z,2.37
2019-02-22T20:48:27.004Z,2.29
2019-02-22T20:50:55.630Z,2.21
2019-02-22T20:53:24.324Z,2.21
2019-02-22T20:55:52.995Z,2.15
2019-02-22T20:58:21.475Z,2.09
2019-02-22T21:00:53.745Z,2.14
2019-02-22T21:03:22.225Z,2.10
2019-02-22T21:05:50.764Z,1.99
2019-02-22T21:08:19.245Z,2.03
2019-02-22T21:10:49.014Z,2.03
2019-02-22T21:13:17.489Z,2.02
2019-02-22T21:15:46.114Z,2.08
2019-02-22T21:18:17.323Z,2.02
2019-02-22T21:20:45.800Z,1.98
2019-02-22T21:23:14.309Z,1.90
2019-02-22T21:25:42.873Z,1.92
2019-02-22T21:28:11.355Z,1.88
2019-02-22T21:30:39.832Z,1.87
2019-02-22T21:33:08.304Z,1.86
2019-02-22T21:35:36.931Z,1.80
2019-02-22T21:38:07.451Z,1.81
2019-02-22T21:40:35.750Z,1.78
2019-02-22T21:43:05.769Z,1.73
2019-02-22T21:45:42.599Z,1.79
2019-02-22T21:48:11.125Z,1.83
2019-02-22T21:50:39.614Z,1.85
2019-02-22T21:53:08.096Z,1.75
2019-02-22T21:55:36.584Z,1.72
2019-02-22T21:58:07.674Z,1.75
2019-02-22T22:00:36.237Z,1.84
2019-02-22T22:03:04.780Z,1.85
2019-02-22T22:05:37.487Z,1.82
2019-02-22T22:08:07.857Z,1.85
2019-02-22T22:10:36.377Z,1.82
2019-02-22T22:13:04.876Z,1.83
2019-02-22T22:15:36.540Z,1.86
2019-02-22T22:18:06.146Z,1.84
2019-02-22T22:20:34.610Z,1.88
2019-02-22T22:23:03.139Z,1.91
2019-02-22T22:25:31.613Z,1.89
2019-02-22T22:28:00.199Z,1.92
2019-02-22T22:30:28.660Z,1.88
2019-02-22T22:32:58.148Z,1.81
2019-02-22T22:35:26.614Z,1.91
2019-02-22T22:37:55.120Z,1.80
2019-02-22T22:40:23.863Z,1.80
2019-02-22T22:42:52.327Z,1.89
2019-02-22T22:45:20.894Z,1.83
2019-02-22T22:47:49.371Z,1.88
2019-02-22T22:50:18.340Z,1.86
2019-02-22T22:52:46.816Z,1.76
2019-02-22T22:55:18.729Z,1.73
2019-02-22T22:57:47.483Z,1.61
2019-02-22T23:03:21.696Z,1.76
2019-02-22T23:05:50.226Z,1.69
2019-02-22T23:08:18.719Z,1.52
2019-02-22T23:10:47.307Z,1.58
2019-02-22T23:13:15.768Z,1.61
2019-02-22T23:15:44.245Z,1.62
2019-02-22T23:18:12.784Z,1.66
2019-02-22T23:20:41.401Z,1.60
2019-02-22T23:23:10.032Z,1.51
2019-02-22T23:25:38.584Z,1.36
2019-02-22T23:28:11.584Z,1.29
2019-02-22T23:30:40.073Z,1.19
2019-02-22T23:33:08.626Z,1.12
2019-02-22T23:35:37.188Z,1.16
2019-02-22T23:38:05.658Z,1.17
2019-02-22T23:40:34.144Z,1.18
2019-02-22T23:43:02.626Z,1.23
2019-02-22T23:45:31.188Z,1.18
2019-02-22T23:47:59.649Z,1.09
2019-02-22T23:50:28.175Z,1.02
2019-02-22T23:52:56.645Z,0.98
2019-02-22T23:55:25.124Z,0.85
2019-02-22T23:57:53.619Z,0.85
